sensor_id;sensor_type;location;lat;lon;timestamp;temperature;humidity
33095;DHT22;19459;53.044;8.910;2024-01-30T00:02:13;4.40;99.90
33095;DHT22;19459;53.044;8.910;2024-01-30T00:04:38;4.40;99.90
33095;DHT22;19459;53.044;8.910;2024-01-30T00:07:04;4.40;99.90
33095;DHT22;19459;53.044;8.910;2024-01-30T00:09:30;4.40;99.90
33095;DHT22;19459;53.044;8.910;2024-01-30T00:11:56;4.30;99.90
33095;DHT22;19459;53.044;8.910;2024-01-30T00:14:22;4.30;99.90
33095;DHT22;19459;53.044;8.910;2024-01-30T00:16:48;4.30;99.90
33095;DHT22;19459;53.044;8.910;2024-01-30T00:19:17;4.30;99.90
33095;DHT22;19459;53.044;8.910;2024-01-30T00:21:43;4.20;99.90
33095;DHT22;19459;53.044;8.910;2024-01-30T00:24:09;4.20;99.90
33095;DHT22;19459;53.044;8.910;2024-01-30T00:26:35;4.30;99.90
33095;DHT22;19459;53.044;8.910;2024-01-30T00:29:00;4.20;99.90
33095;DHT22;19459;53.044;8.910;2024-01-30T00:31:26;4.20;99.90
33095;DHT22;19459;53.044;8.910;2024-01-30T00:33:52;4.20;99.90
33095;DHT22;19459;53.044;8.910;2024-01-30T00:36:18;4.20;99.90
33095;DHT22;19459;53.044;8.910;2024-01-30T00:38:44;4.20;99.90
33095;DHT22;19459;53.044;8.910;2024-01-30T00:41:10;4.20;99.90
33095;DHT22;19459;53.044;8.910;2024-01-30T00:43:36;4.20;99.90
33095;DHT22;19459;53.044;8.910;2024-01-30T00:46:02;4.20;99.90
33095;DHT22;19459;53.044;8.910;2024-01-30T00:48:28;4.10;99.90
33095;DHT22;19459;53.044;8.910;2024-01-30T00:50:54;4.20;99.90
33095;DHT22;19459;53.044;8.910;2024-01-30T00:53:23;4.10;99.90
33095;DHT22;19459;53.044;8.910;2024-01-30T00:55:49;4.20;99.90
33095;DHT22;19459;53.044;8.910;2024-01-30T00:58:15;4.20;99.90
33095;DHT22;19459;53.044;8.910;2024-01-30T01:00:40;4.30;99.90
33095;DHT22;19459;53.044;8.910;2024-01-30T01:03:06;4.30;99.90
33095;DHT22;19459;53.044;8.910;2024-01-30T01:05:32;4.30;99.90
33095;DHT22;19459;53.044;8.910;2024-01-30T01:07:58;4.30;99.90
33095;DHT22;19459;53.044;8.910;2024-01-30T01:10:24;4.30;99.90
33095;DHT22;19459;53.044;8.910;2024-01-30T01:12:49;4.30;99.90
33095;DHT22;19459;53.044;8.910;2024-01-30T01:15:15;4.30;99.90
33095;DHT22;19459;53.044;8.910;2024-01-30T01:17:41;4.40;99.90
33095;DHT22;19459;53.044;8.910;2024-01-30T01:20:08;4.30;99.90
33095;DHT22;19459;53.044;8.910;2024-01-30T01:22:37;4.40;99.90
33095;DHT22;19459;53.044;8.910;2024-01-30T01:25:04;4.40;99.90
33095;DHT22;19459;53.044;8.910;2024-01-30T01:27:34;4.40;99.90
33095;DHT22;19459;53.044;8.910;2024-01-30T01:30:04;4.40;99.90
33095;DHT22;19459;53.044;8.910;2024-01-30T01:32:31;4.40;99.90
33095;DHT22;19459;53.044;8.910;2024-01-30T01:34:57;4.50;99.90
33095;DHT22;19459;53.044;8.910;2024-01-30T01:37:22;4.50;99.90
33095;DHT22;19459;53.044;8.910;2024-01-30T01:39:52;4.50;99.90
33095;DHT22;19459;53.044;8.910;2024-01-30T01:42:18;4.50;99.90
33095;DHT22;19459;53.044;8.910;2024-01-30T01:44:43;4.50;99.90
33095;DHT22;19459;53.044;8.910;2024-01-30T01:47:09;4.50;99.90
33095;DHT22;19459;53.044;8.910;2024-01-30T01:49:36;4.50;99.90
33095;DHT22;19459;53.044;8.910;2024-01-30T01:52:01;4.50;99.90
33095;DHT22;19459;53.044;8.910;2024-01-30T01:54:28;4.50;99.90
33095;DHT22;19459;53.044;8.910;2024-01-30T01:56:54;4.60;99.90
33095;DHT22;19459;53.044;8.910;2024-01-30T01:59:21;4.60;99.90
33095;DHT22;19459;53.044;8.910;2024-01-30T02:01:48;4.70;99.90
33095;DHT22;19459;53.044;8.910;2024-01-30T02:04:16;4.60;99.90
33095;DHT22;19459;53.044;8.910;2024-01-30T02:06:43;4.70;99.90
33095;DHT22;19459;53.044;8.910;2024-01-30T02:09:09;4.70;99.90
33095;DHT22;19459;53.044;8.910;2024-01-30T02:11:35;4.70;99.90
33095;DHT22;19459;53.044;8.910;2024-01-30T02:14:05;4.60;99.90
33095;DHT22;19459;53.044;8.910;2024-01-30T02:16:31;4.60;99.90
33095;DHT22;19459;53.044;8.910;2024-01-30T02:18:58;4.60;99.90
33095;DHT22;19459;53.044;8.910;2024-01-30T02:21:24;4.50;99.90
33095;DHT22;19459;53.044;8.910;2024-01-30T02:23:50;4.50;99.90
33095;DHT22;19459;53.044;8.910;2024-01-30T02:26:18;4.50;99.90
33095;DHT22;19459;53.044;8.910;2024-01-30T02:28:44;4.40;99.90
33095;DHT22;19459;53.044;8.910;2024-01-30T02:31:09;4.40;99.90
33095;DHT22;19459;53.044;8.910;2024-01-30T02:33:35;4.50;99.90
33095;DHT22;19459;53.044;8.910;2024-01-30T02:36:01;4.40;99.90
33095;DHT22;19459;53.044;8.910;2024-01-30T02:38:28;4.40;99.90
33095;DHT22;19459;53.044;8.910;2024-01-30T02:40:54;4.40;99.90
33095;DHT22;19459;53.044;8.910;2024-01-30T02:43:21;4.40;99.90
33095;DHT22;19459;53.044;8.910;2024-01-30T02:45:47;4.40;99.90
33095;DHT22;19459;53.044;8.910;2024-01-30T02:48:13;4.40;99.90
33095;DHT22;19459;53.044;8.910;2024-01-30T02:50:39;4.40;99.90
33095;DHT22;19459;53.044;8.910;2024-01-30T02:53:08;4.40;99.90
33095;DHT22;19459;53.044;8.910;2024-01-30T02:55:33;4.40;99.90
33095;DHT22;19459;53.044;8.910;2024-01-30T02:58:02;4.40;99.90
33095;DHT22;19459;53.044;8.910;2024-01-30T03:00:28;4.40;99.90
33095;DHT22;19459;53.044;8.910;2024-01-30T03:02:54;4.40;99.90
33095;DHT22;19459;53.044;8.910;2024-01-30T03:05:20;4.50;99.90
33095;DHT22;19459;53.044;8.910;2024-01-30T03:07:48;4.40;99.90
33095;DHT22;19459;53.044;8.910;2024-01-30T03:10:14;4.40;99.90
33095;DHT22;19459;53.044;8.910;2024-01-30T03:12:40;4.50;99.90
33095;DHT22;19459;53.044;8.910;2024-01-30T03:15:06;4.40;99.90
33095;DHT22;19459;53.044;8.910;2024-01-30T03:17:32;4.40;99.90
33095;DHT22;19459;53.044;8.910;2024-01-30T03:20:03;4.40;99.90
33095;DHT22;19459;53.044;8.910;2024-01-30T03:22:29;4.40;99.90
33095;DHT22;19459;53.044;8.910;2024-01-30T03:24:55;4.30;99.90
33095;DHT22;19459;53.044;8.910;2024-01-30T03:27:23;4.40;99.90
33095;DHT22;19459;53.044;8.910;2024-01-30T03:29:49;4.30;99.90
33095;DHT22;19459;53.044;8.910;2024-01-30T03:32:15;4.30;99.90
33095;DHT22;19459;53.044;8.910;2024-01-30T03:34:41;4.30;99.90
33095;DHT22;19459;53.044;8.910;2024-01-30T03:37:06;4.30;99.90
33095;DHT22;19459;53.044;8.910;2024-01-30T03:39:32;4.20;99.90
33095;DHT22;19459;53.044;8.910;2024-01-30T03:41:58;4.30;99.90
33095;DHT22;19459;53.044;8.910;2024-01-30T03:44:24;4.20;99.90
33095;DHT22;19459;53.044;8.910;2024-01-30T03:46:50;4.30;99.90
33095;DHT22;19459;53.044;8.910;2024-01-30T03:49:16;4.30;99.90
33095;DHT22;19459;53.044;8.910;2024-01-30T03:51:41;4.30;99.90
33095;DHT22;19459;53.044;8.910;2024-01-30T03:54:07;4.40;99.90
33095;DHT22;19459;53.044;8.910;2024-01-30T03:56:33;4.30;99.90
33095;DHT22;19459;53.044;8.910;2024-01-30T03:58:59;4.40;99.90
33095;DHT22;19459;53.044;8.910;2024-01-30T04:01:26;4.40;99.90
33095;DHT22;19459;53.044;8.910;2024-01-30T04:03:54;4.40;99.90
33095;DHT22;19459;53.044;8.910;2024-01-30T04:06:20;4.40;99.90
33095;DHT22;19459;53.044;8.910;2024-01-30T04:08:46;4.40;99.90
33095;DHT22;19459;53.044;8.910;2024-01-30T04:11:11;4.50;99.90
33095;DHT22;19459;53.044;8.910;2024-01-30T04:13:37;4.50;99.90
33095;DHT22;19459;53.044;8.910;2024-01-30T04:16:03;4.50;99.90
33095;DHT22;19459;53.044;8.910;2024-01-30T04:18:30;4.50;99.90
33095;DHT22;19459;53.044;8.910;2024-01-30T04:20:58;4.60;99.90
33095;DHT22;19459;53.044;8.910;2024-01-30T04:23:24;4.60;99.90
33095;DHT22;19459;53.044;8.910;2024-01-30T04:25:49;4.60;99.90
33095;DHT22;19459;53.044;8.910;2024-01-30T04:28:15;4.70;99.90
33095;DHT22;19459;53.044;8.910;2024-01-30T04:30:41;4.70;99.90
33095;DHT22;19459;53.044;8.910;2024-01-30T04:33:07;4.80;99.90
33095;DHT22;19459;53.044;8.910;2024-01-30T04:35:33;4.80;99.90
33095;DHT22;19459;53.044;8.910;2024-01-30T04:37:58;4.80;99.90
33095;DHT22;19459;53.044;8.910;2024-01-30T04:40:24;4.80;99.90
33095;DHT22;19459;53.044;8.910;2024-01-30T04:42:50;4.80;99.90
33095;DHT22;19459;53.044;8.910;2024-01-30T04:45:16;4.80;99.90
33095;DHT22;19459;53.044;8.910;2024-01-30T04:47:42;4.90;99.90
33095;DHT22;19459;53.044;8.910;2024-01-30T04:50:08;4.90;99.90
33095;DHT22;19459;53.044;8.910;2024-01-30T04:52:35;4.90;99.90
33095;DHT22;19459;53.044;8.910;2024-01-30T04:55:01;4.90;99.90
33095;DHT22;19459;53.044;8.910;2024-01-30T04:57:27;5.00;99.90
33095;DHT22;19459;53.044;8.910;2024-01-30T04:59:53;5.00;99.90
33095;DHT22;19459;53.044;8.910;2024-01-30T05:02:19;5.00;99.90
33095;DHT22;19459;53.044;8.910;2024-01-30T05:04:45;5.00;99.90
33095;DHT22;19459;53.044;8.910;2024-01-30T05:07:11;5.00;99.90
33095;DHT22;19459;53.044;8.910;2024-01-30T05:09:36;5.10;99.90
33095;DHT22;19459;53.044;8.910;2024-01-30T05:12:06;5.00;99.90
33095;DHT22;19459;53.044;8.910;2024-01-30T05:14:32;5.10;99.90
33095;DHT22;19459;53.044;8.910;2024-01-30T05:16:58;5.00;99.90
33095;DHT22;19459;53.044;8.910;2024-01-30T05:19:24;5.00;99.90
33095;DHT22;19459;53.044;8.910;2024-01-30T05:21:50;5.00;99.90
33095;DHT22;19459;53.044;8.910;2024-01-30T05:24:16;5.10;99.90
33095;DHT22;19459;53.044;8.910;2024-01-30T05:26:42;5.00;99.90
33095;DHT22;19459;53.044;8.910;2024-01-30T05:29:07;5.00;99.90
33095;DHT22;19459;53.044;8.910;2024-01-30T05:31:34;5.10;99.90
33095;DHT22;19459;53.044;8.910;2024-01-30T05:34:00;5.10;99.90
33095;DHT22;19459;53.044;8.910;2024-01-30T05:36:29;5.10;99.90
33095;DHT22;19459;53.044;8.910;2024-01-30T05:38:58;5.10;99.90
33095;DHT22;19459;53.044;8.910;2024-01-30T05:41:24;5.10;99.90
33095;DHT22;19459;53.044;8.910;2024-01-30T05:43:50;5.10;99.90
33095;DHT22;19459;53.044;8.910;2024-01-30T05:46:16;5.20;99.90
33095;DHT22;19459;53.044;8.910;2024-01-30T05:48:41;5.20;99.90
33095;DHT22;19459;53.044;8.910;2024-01-30T05:51:08;5.20;99.90
33095;DHT22;19459;53.044;8.910;2024-01-30T05:53:34;5.20;99.90
33095;DHT22;19459;53.044;8.910;2024-01-30T05:56:02;5.20;99.90
33095;DHT22;19459;53.044;8.910;2024-01-30T05:58:28;5.30;99.90
33095;DHT22;19459;53.044;8.910;2024-01-30T06:00:54;5.30;99.90
33095;DHT22;19459;53.044;8.910;2024-01-30T06:03:21;5.30;99.90
33095;DHT22;19459;53.044;8.910;2024-01-30T06:05:47;5.30;99.90
33095;DHT22;19459;53.044;8.910;2024-01-30T06:08:12;5.30;99.90
33095;DHT22;19459;53.044;8.910;2024-01-30T06:10:38;5.30;99.90
33095;DHT22;19459;53.044;8.910;2024-01-30T06:13:04;5.30;99.90
33095;DHT22;19459;53.044;8.910;2024-01-30T06:15:30;5.30;99.90
33095;DHT22;19459;53.044;8.910;2024-01-30T06:17:58;5.30;99.90
33095;DHT22;19459;53.044;8.910;2024-01-30T06:20:24;5.30;99.90
33095;DHT22;19459;53.044;8.910;2024-01-30T06:22:50;5.30;99.90
33095;DHT22;19459;53.044;8.910;2024-01-30T06:25:16;5.30;99.90
33095;DHT22;19459;53.044;8.910;2024-01-30T06:27:42;5.30;99.90
33095;DHT22;19459;53.044;8.910;2024-01-30T06:30:09;5.30;99.90
33095;DHT22;19459;53.044;8.910;2024-01-30T06:32:38;5.30;99.90
33095;DHT22;19459;53.044;8.910;2024-01-30T06:35:04;5.30;99.90
33095;DHT22;19459;53.044;8.910;2024-01-30T06:37:33;5.30;99.90
33095;DHT22;19459;53.044;8.910;2024-01-30T06:39:59;5.30;99.90
33095;DHT22;19459;53.044;8.910;2024-01-30T06:42:25;5.40;99.90
33095;DHT22;19459;53.044;8.910;2024-01-30T06:44:51;5.40;99.90
33095;DHT22;19459;53.044;8.910;2024-01-30T06:47:17;5.50;99.90
33095;DHT22;19459;53.044;8.910;2024-01-30T06:49:42;5.40;99.90
33095;DHT22;19459;53.044;8.910;2024-01-30T06:52:09;5.40;99.90
33095;DHT22;19459;53.044;8.910;2024-01-30T06:54:35;5.40;99.90
33095;DHT22;19459;53.044;8.910;2024-01-30T06:57:01;5.40;99.90
33095;DHT22;19459;53.044;8.910;2024-01-30T06:59:26;5.40;99.90
33095;DHT22;19459;53.044;8.910;2024-01-30T07:01:52;5.40;99.90
33095;DHT22;19459;53.044;8.910;2024-01-30T07:04:18;5.40;99.90
33095;DHT22;19459;53.044;8.910;2024-01-30T07:06:44;5.40;99.90
33095;DHT22;19459;53.044;8.910;2024-01-30T07:09:10;5.40;99.90
33095;DHT22;19459;53.044;8.910;2024-01-30T07:11:36;5.30;99.90
33095;DHT22;19459;53.044;8.910;2024-01-30T07:14:01;5.30;99.90
33095;DHT22;19459;53.044;8.910;2024-01-30T07:16:31;5.40;99.90
33095;DHT22;19459;53.044;8.910;2024-01-30T07:18:56;5.40;99.90
33095;DHT22;19459;53.044;8.910;2024-01-30T07:21:22;5.30;99.90
33095;DHT22;19459;53.044;8.910;2024-01-30T07:23:56;5.30;99.90
33095;DHT22;19459;53.044;8.910;2024-01-30T07:26:22;5.30;99.90
33095;DHT22;19459;53.044;8.910;2024-01-30T07:28:48;5.30;99.90
33095;DHT22;19459;53.044;8.910;2024-01-30T07:31:15;5.30;99.90
33095;DHT22;19459;53.044;8.910;2024-01-30T07:33:41;5.30;99.90
33095;DHT22;19459;53.044;8.910;2024-01-30T07:36:07;5.20;99.90
33095;DHT22;19459;53.044;8.910;2024-01-30T07:38:41;5.20;99.90
33095;DHT22;19459;53.044;8.910;2024-01-30T07:41:07;5.20;99.90
33095;DHT22;19459;53.044;8.910;2024-01-30T07:43:33;5.30;99.90
33095;DHT22;19459;53.044;8.910;2024-01-30T07:45:59;5.20;99.90
33095;DHT22;19459;53.044;8.910;2024-01-30T07:48:27;5.30;99.90
33095;DHT22;19459;53.044;8.910;2024-01-30T07:50:53;5.30;99.90
33095;DHT22;19459;53.044;8.910;2024-01-30T07:53:18;5.40;99.90
33095;DHT22;19459;53.044;8.910;2024-01-30T07:55:45;5.40;99.90
33095;DHT22;19459;53.044;8.910;2024-01-30T07:58:12;5.40;99.90
33095;DHT22;19459;53.044;8.910;2024-01-30T08:00:38;5.50;99.90
33095;DHT22;19459;53.044;8.910;2024-01-30T08:03:07;5.50;99.90
33095;DHT22;19459;53.044;8.910;2024-01-30T08:05:32;5.50;99.90
33095;DHT22;19459;53.044;8.910;2024-01-30T08:07:58;5.60;99.90
33095;DHT22;19459;53.044;8.910;2024-01-30T08:10:24;5.60;99.90
33095;DHT22;19459;53.044;8.910;2024-01-30T08:12:50;5.70;99.90
33095;DHT22;19459;53.044;8.910;2024-01-30T08:15:16;5.70;99.90
33095;DHT22;19459;53.044;8.910;2024-01-30T08:17:42;5.70;99.90
33095;DHT22;19459;53.044;8.910;2024-01-30T08:20:08;5.80;99.90
33095;DHT22;19459;53.044;8.910;2024-01-30T08:22:37;5.80;99.90
33095;DHT22;19459;53.044;8.910;2024-01-30T08:25:05;5.80;99.90
33095;DHT22;19459;53.044;8.910;2024-01-30T08:27:31;5.90;99.90
33095;DHT22;19459;53.044;8.910;2024-01-30T08:29:56;5.90;99.90
33095;DHT22;19459;53.044;8.910;2024-01-30T08:32:23;5.90;99.90
33095;DHT22;19459;53.044;8.910;2024-01-30T08:34:49;6.00;99.90
33095;DHT22;19459;53.044;8.910;2024-01-30T08:37:15;6.00;99.90
33095;DHT22;19459;53.044;8.910;2024-01-30T08:39:43;6.00;99.90
33095;DHT22;19459;53.044;8.910;2024-01-30T08:42:09;6.10;99.90
33095;DHT22;19459;53.044;8.910;2024-01-30T08:44:35;6.10;99.90
33095;DHT22;19459;53.044;8.910;2024-01-30T08:47:21;6.10;99.90
33095;DHT22;19459;53.044;8.910;2024-01-30T08:49:50;6.20;99.90
33095;DHT22;19459;53.044;8.910;2024-01-30T08:52:16;6.20;99.90
33095;DHT22;19459;53.044;8.910;2024-01-30T08:54:42;6.30;99.90
33095;DHT22;19459;53.044;8.910;2024-01-30T08:57:08;6.40;99.90
33095;DHT22;19459;53.044;8.910;2024-01-30T08:59:34;6.40;99.90
33095;DHT22;19459;53.044;8.910;2024-01-30T09:02:00;6.50;99.90
33095;DHT22;19459;53.044;8.910;2024-01-30T09:04:26;6.60;99.90
33095;DHT22;19459;53.044;8.910;2024-01-30T09:06:52;6.60;99.90
33095;DHT22;19459;53.044;8.910;2024-01-30T09:09:17;6.60;99.90
33095;DHT22;19459;53.044;8.910;2024-01-30T09:11:44;6.70;99.90
33095;DHT22;19459;53.044;8.910;2024-01-30T09:14:13;6.80;99.90
33095;DHT22;19459;53.044;8.910;2024-01-30T09:16:39;6.80;99.90
33095;DHT22;19459;53.044;8.910;2024-01-30T09:19:05;6.90;99.90
33095;DHT22;19459;53.044;8.910;2024-01-30T09:21:30;6.90;99.90
33095;DHT22;19459;53.044;8.910;2024-01-30T09:24:02;7.00;99.90
33095;DHT22;19459;53.044;8.910;2024-01-30T09:26:29;7.00;99.90
33095;DHT22;19459;53.044;8.910;2024-01-30T09:28:55;7.10;99.90
33095;DHT22;19459;53.044;8.910;2024-01-30T09:31:21;7.10;99.90
33095;DHT22;19459;53.044;8.910;2024-01-30T09:33:46;7.20;99.90
33095;DHT22;19459;53.044;8.910;2024-01-30T09:36:13;7.20;99.90
33095;DHT22;19459;53.044;8.910;2024-01-30T09:38:44;7.30;99.90
33095;DHT22;19459;53.044;8.910;2024-01-30T09:41:10;7.40;99.90
33095;DHT22;19459;53.044;8.910;2024-01-30T09:43:38;7.50;99.90
33095;DHT22;19459;53.044;8.910;2024-01-30T09:46:11;7.60;99.90
33095;DHT22;19459;53.044;8.910;2024-01-30T09:48:41;7.60;99.90
33095;DHT22;19459;53.044;8.910;2024-01-30T09:51:09;7.70;99.90
33095;DHT22;19459;53.044;8.910;2024-01-30T09:53:36;7.70;99.90
33095;DHT22;19459;53.044;8.910;2024-01-30T09:56:03;7.80;99.90
33095;DHT22;19459;53.044;8.910;2024-01-30T09:58:29;7.90;99.90
33095;DHT22;19459;53.044;8.910;2024-01-30T10:00:55;7.90;99.90
33095;DHT22;19459;53.044;8.910;2024-01-30T10:03:21;8.00;99.90
33095;DHT22;19459;53.044;8.910;2024-01-30T10:05:53;8.00;99.90
33095;DHT22;19459;53.044;8.910;2024-01-30T10:08:20;8.10;99.90
33095;DHT22;19459;53.044;8.910;2024-01-30T10:10:50;8.10;99.90
33095;DHT22;19459;53.044;8.910;2024-01-30T10:13:16;8.20;99.90
33095;DHT22;19459;53.044;8.910;2024-01-30T10:15:42;8.30;99.90
33095;DHT22;19459;53.044;8.910;2024-01-30T10:18:08;8.30;99.90
33095;DHT22;19459;53.044;8.910;2024-01-30T10:20:36;8.40;99.90
33095;DHT22;19459;53.044;8.910;2024-01-30T10:23:02;8.50;99.90
33095;DHT22;19459;53.044;8.910;2024-01-30T10:25:31;8.50;99.90
33095;DHT22;19459;53.044;8.910;2024-01-30T10:27:58;8.70;99.90
33095;DHT22;19459;53.044;8.910;2024-01-30T10:30:24;8.80;99.90
33095;DHT22;19459;53.044;8.910;2024-01-30T10:32:50;8.80;99.90
33095;DHT22;19459;53.044;8.910;2024-01-30T10:35:17;8.90;99.90
33095;DHT22;19459;53.044;8.910;2024-01-30T10:37:49;8.90;99.90
33095;DHT22;19459;53.044;8.910;2024-01-30T10:40:15;8.90;99.90
33095;DHT22;19459;53.044;8.910;2024-01-30T10:42:45;8.90;99.90
33095;DHT22;19459;53.044;8.910;2024-01-30T10:45:14;9.00;99.90
33095;DHT22;19459;53.044;8.910;2024-01-30T10:47:50;9.00;99.90
33095;DHT22;19459;53.044;8.910;2024-01-30T10:50:16;9.10;99.90
33095;DHT22;19459;53.044;8.910;2024-01-30T10:52:42;9.10;99.90
33095;DHT22;19459;53.044;8.910;2024-01-30T10:55:10;9.20;99.90
33095;DHT22;19459;53.044;8.910;2024-01-30T10:57:36;9.20;99.90
33095;DHT22;19459;53.044;8.910;2024-01-30T11:00:08;9.30;99.90
33095;DHT22;19459;53.044;8.910;2024-01-30T11:02:47;9.50;99.90
33095;DHT22;19459;53.044;8.910;2024-01-30T11:05:13;9.60;99.90
33095;DHT22;19459;53.044;8.910;2024-01-30T11:07:41;9.70;99.90
33095;DHT22;19459;53.044;8.910;2024-01-30T11:10:07;9.90;99.90
33095;DHT22;19459;53.044;8.910;2024-01-30T11:12:39;9.90;99.90
33095;DHT22;19459;53.044;8.910;2024-01-30T11:15:11;9.90;99.90
33095;DHT22;19459;53.044;8.910;2024-01-30T11:17:51;10.00;99.90
33095;DHT22;19459;53.044;8.910;2024-01-30T11:20:30;10.10;99.90
33095;DHT22;19459;53.044;8.910;2024-01-30T11:22:58;10.10;99.90
33095;DHT22;19459;53.044;8.910;2024-01-30T11:25:25;10.10;99.90
33095;DHT22;19459;53.044;8.910;2024-01-30T11:27:53;10.10;99.90
33095;DHT22;19459;53.044;8.910;2024-01-30T11:35:24;10.30;99.90
33095;DHT22;19459;53.044;8.910;2024-01-30T11:37:50;10.40;99.90
33095;DHT22;19459;53.044;8.910;2024-01-30T11:40:17;10.50;99.90
33095;DHT22;19459;53.044;8.910;2024-01-30T11:42:43;10.50;99.90
33095;DHT22;19459;53.044;8.910;2024-01-30T11:45:09;10.60;99.90
33095;DHT22;19459;53.044;8.910;2024-01-30T11:47:38;10.70;99.90
33095;DHT22;19459;53.044;8.910;2024-01-30T11:50:04;10.70;99.90
33095;DHT22;19459;53.044;8.910;2024-01-30T11:52:33;10.70;99.90
33095;DHT22;19459;53.044;8.910;2024-01-30T11:54:59;10.80;99.90
33095;DHT22;19459;53.044;8.910;2024-01-30T11:57:27;10.80;99.90
33095;DHT22;19459;53.044;8.910;2024-01-30T11:59:53;10.80;99.90
33095;DHT22;19459;53.044;8.910;2024-01-30T12:02:18;10.80;99.90
33095;DHT22;19459;53.044;8.910;2024-01-30T12:04:44;10.70;99.90
33095;DHT22;19459;53.044;8.910;2024-01-30T12:07:11;10.70;99.90
33095;DHT22;19459;53.044;8.910;2024-01-30T12:09:37;10.70;99.90
33095;DHT22;19459;53.044;8.910;2024-01-30T12:12:03;10.70;99.90
33095;DHT22;19459;53.044;8.910;2024-01-30T12:14:30;10.60;99.90
33095;DHT22;19459;53.044;8.910;2024-01-30T12:16:55;10.60;99.90
33095;DHT22;19459;53.044;8.910;2024-01-30T12:19:26;10.60;99.90
33095;DHT22;19459;53.044;8.910;2024-01-30T12:21:58;10.60;99.90
33095;DHT22;19459;53.044;8.910;2024-01-30T12:24:28;10.70;99.90
33095;DHT22;19459;53.044;8.910;2024-01-30T12:26:59;10.70;99.90
33095;DHT22;19459;53.044;8.910;2024-01-30T12:29:25;10.60;99.90
33095;DHT22;19459;53.044;8.910;2024-01-30T12:31:54;10.70;99.90
33095;DHT22;19459;53.044;8.910;2024-01-30T12:34:20;10.70;99.90
33095;DHT22;19459;53.044;8.910;2024-01-30T12:36:49;10.70;99.90
33095;DHT22;19459;53.044;8.910;2024-01-30T12:39:15;10.70;99.90
33095;DHT22;19459;53.044;8.910;2024-01-30T12:41:41;10.70;99.90
33095;DHT22;19459;53.044;8.910;2024-01-30T12:44:08;10.70;99.90
33095;DHT22;19459;53.044;8.910;2024-01-30T12:46:37;10.80;99.90
33095;DHT22;19459;53.044;8.910;2024-01-30T12:49:02;10.90;99.90
33095;DHT22;19459;53.044;8.910;2024-01-30T12:51:28;10.90;99.90
33095;DHT22;19459;53.044;8.910;2024-01-30T12:53:54;10.90;99.90
33095;DHT22;19459;53.044;8.910;2024-01-30T12:56:20;10.90;99.90
33095;DHT22;19459;53.044;8.910;2024-01-30T12:58:46;11.00;99.90
33095;DHT22;19459;53.044;8.910;2024-01-30T13:01:11;11.00;99.90
33095;DHT22;19459;53.044;8.910;2024-01-30T13:03:37;11.00;99.90
33095;DHT22;19459;53.044;8.910;2024-01-30T13:06:03;11.00;99.90
33095;DHT22;19459;53.044;8.910;2024-01-30T13:08:29;11.00;99.90
33095;DHT22;19459;53.044;8.910;2024-01-30T13:10:55;11.00;99.90
33095;DHT22;19459;53.044;8.910;2024-01-30T13:13:21;11.00;99.90
33095;DHT22;19459;53.044;8.910;2024-01-30T13:15:48;11.10;99.90
33095;DHT22;19459;53.044;8.910;2024-01-30T13:18:13;11.10;99.90
33095;DHT22;19459;53.044;8.910;2024-01-30T13:20:39;11.10;99.90
33095;DHT22;19459;53.044;8.910;2024-01-30T13:23:05;11.10;99.90
33095;DHT22;19459;53.044;8.910;2024-01-30T13:25:31;11.10;99.90
33095;DHT22;19459;53.044;8.910;2024-01-30T13:27:57;11.10;99.90
33095;DHT22;19459;53.044;8.910;2024-01-30T13:30:22;11.10;99.90
33095;DHT22;19459;53.044;8.910;2024-01-30T13:32:48;11.10;99.90
33095;DHT22;19459;53.044;8.910;2024-01-30T13:35:14;11.10;99.90
33095;DHT22;19459;53.044;8.910;2024-01-30T13:37:40;11.10;99.90
33095;DHT22;19459;53.044;8.910;2024-01-30T13:40:07;11.10;99.90
33095;DHT22;19459;53.044;8.910;2024-01-30T13:42:34;11.10;99.90
33095;DHT22;19459;53.044;8.910;2024-01-30T13:45:00;11.10;99.90
33095;DHT22;19459;53.044;8.910;2024-01-30T13:47:26;11.10;99.90
33095;DHT22;19459;53.044;8.910;2024-01-30T13:49:52;11.20;99.90
33095;DHT22;19459;53.044;8.910;2024-01-30T13:52:18;11.20;99.90
33095;DHT22;19459;53.044;8.910;2024-01-30T13:54:44;11.20;99.90
33095;DHT22;19459;53.044;8.910;2024-01-30T13:57:10;11.20;99.90
33095;DHT22;19459;53.044;8.910;2024-01-30T13:59:37;11.20;99.90
33095;DHT22;19459;53.044;8.910;2024-01-30T14:02:03;11.20;99.90
33095;DHT22;19459;53.044;8.910;2024-01-30T14:04:29;11.20;99.90
33095;DHT22;19459;53.044;8.910;2024-01-30T14:06:55;11.30;99.90
33095;DHT22;19459;53.044;8.910;2024-01-30T14:09:21;11.20;99.90
33095;DHT22;19459;53.044;8.910;2024-01-30T14:11:47;11.30;99.90
33095;DHT22;19459;53.044;8.910;2024-01-30T14:14:12;11.30;99.90
33095;DHT22;19459;53.044;8.910;2024-01-30T14:16:38;11.30;99.90
33095;DHT22;19459;53.044;8.910;2024-01-30T14:19:04;11.30;99.90
33095;DHT22;19459;53.044;8.910;2024-01-30T14:21:30;11.30;99.90
33095;DHT22;19459;53.044;8.910;2024-01-30T14:23:56;11.30;99.90
33095;DHT22;19459;53.044;8.910;2024-01-30T14:26:22;11.40;99.90
33095;DHT22;19459;53.044;8.910;2024-01-30T14:28:51;11.30;99.90
33095;DHT22;19459;53.044;8.910;2024-01-30T14:31:16;11.40;99.90
33095;DHT22;19459;53.044;8.910;2024-01-30T14:33:44;11.40;99.90
33095;DHT22;19459;53.044;8.910;2024-01-30T14:36:09;11.50;99.90
33095;DHT22;19459;53.044;8.910;2024-01-30T14:38:35;11.50;99.90
33095;DHT22;19459;53.044;8.910;2024-01-30T14:41:01;11.50;99.90
33095;DHT22;19459;53.044;8.910;2024-01-30T14:43:27;11.50;99.90
33095;DHT22;19459;53.044;8.910;2024-01-30T14:45:52;11.50;99.90
33095;DHT22;19459;53.044;8.910;2024-01-30T14:48:18;11.50;99.90
33095;DHT22;19459;53.044;8.910;2024-01-30T14:50:44;11.60;99.90
33095;DHT22;19459;53.044;8.910;2024-01-30T14:53:10;11.70;99.90
33095;DHT22;19459;53.044;8.910;2024-01-30T14:55:36;11.80;99.90
33095;DHT22;19459;53.044;8.910;2024-01-30T14:58:01;11.80;99.90
33095;DHT22;19459;53.044;8.910;2024-01-30T15:00:28;11.80;99.90
33095;DHT22;19459;53.044;8.910;2024-01-30T15:02:54;11.70;99.90
33095;DHT22;19459;53.044;8.910;2024-01-30T15:05:20;11.70;99.90
33095;DHT22;19459;53.044;8.910;2024-01-30T15:07:45;11.60;99.90
33095;DHT22;19459;53.044;8.910;2024-01-30T15:10:11;11.50;99.90
33095;DHT22;19459;53.044;8.910;2024-01-30T15:12:37;11.50;99.90
33095;DHT22;19459;53.044;8.910;2024-01-30T15:15:04;11.40;99.90
33095;DHT22;19459;53.044;8.910;2024-01-30T15:17:32;11.40;99.90
33095;DHT22;19459;53.044;8.910;2024-01-30T15:19:58;11.30;99.90
33095;DHT22;19459;53.044;8.910;2024-01-30T15:22:25;11.30;99.90
33095;DHT22;19459;53.044;8.910;2024-01-30T15:24:51;11.30;99.90
33095;DHT22;19459;53.044;8.910;2024-01-30T15:27:17;11.30;99.90
33095;DHT22;19459;53.044;8.910;2024-01-30T15:29:45;11.30;99.90
33095;DHT22;19459;53.044;8.910;2024-01-30T15:32:11;11.30;99.90
33095;DHT22;19459;53.044;8.910;2024-01-30T15:34:37;11.30;99.90
33095;DHT22;19459;53.044;8.910;2024-01-30T15:37:03;11.20;99.90
33095;DHT22;19459;53.044;8.910;2024-01-30T15:39:29;11.20;99.90
33095;DHT22;19459;53.044;8.910;2024-01-30T15:41:54;11.20;99.90
33095;DHT22;19459;53.044;8.910;2024-01-30T15:44:20;11.20;99.90